sensor_id;sensor_type;location;lat;lon;timestamp;P1;durP1;ratioP1;P2;durP2;ratioP2
7493;SDS011;3788;49.902;8.590;2023-02-15T00:01:55;21.50;;;13.10;;
7493;SDS011;3788;49.902;8.590;2023-02-15T00:04:24;20.03;;;13.20;;
7493;SDS011;3788;49.902;8.590;2023-02-15T00:07:13;20.87;;;12.53;;
7493;SDS011;3788;49.902;8.590;2023-02-15T00:09:40;23.27;;;13.90;;
7493;SDS011;3788;49.902;8.590;2023-02-15T00:12:08;19.80;;;12.30;;
7493;SDS011;3788;49.902;8.590;2023-02-15T00:14:35;19.90;;;13.63;;
7493;SDS011;3788;49.902;8.590;2023-02-15T00:17:02;20.43;;;12.53;;
7493;SDS011;3788;49.902;8.590;2023-02-15T00:19:28;20.30;;;13.73;;
7493;SDS011;3788;49.902;8.590;2023-02-15T00:21:55;23.43;;;14.37;;
7493;SDS011;3788;49.902;8.590;2023-02-15T00:24:23;19.90;;;13.00;;
7493;SDS011;3788;49.902;8.590;2023-02-15T00:26:50;20.97;;;12.57;;
7493;SDS011;3788;49.902;8.590;2023-02-15T00:29:18;20.30;;;13.00;;
7493;SDS011;3788;49.902;8.590;2023-02-15T00:31:45;21.97;;;13.20;;
7493;SDS011;3788;49.902;8.590;2023-02-15T00:34:13;21.00;;;13.07;;
7493;SDS011;3788;49.902;8.590;2023-02-15T00:36:42;17.90;;;12.43;;
7493;SDS011;3788;49.902;8.590;2023-02-15T00:39:10;21.37;;;12.90;;
7493;SDS011;3788;49.902;8.590;2023-02-15T00:41:38;20.07;;;12.40;;
7493;SDS011;3788;49.902;8.590;2023-02-15T00:44:05;19.87;;;13.27;;
7493;SDS011;3788;49.902;8.590;2023-02-15T00:46:33;19.10;;;13.30;;
7493;SDS011;3788;49.902;8.590;2023-02-15T00:49:00;19.40;;;12.17;;
7493;SDS011;3788;49.902;8.590;2023-02-15T00:51:26;21.70;;;14.13;;
7493;SDS011;3788;49.902;8.590;2023-02-15T00:53:54;19.90;;;13.30;;
7493;SDS011;3788;49.902;8.590;2023-02-15T00:56:20;19.97;;;12.87;;
7493;SDS011;3788;49.902;8.590;2023-02-15T00:58:48;20.80;;;13.30;;
7493;SDS011;3788;49.902;8.590;2023-02-15T01:01:16;16.70;;;11.53;;
7493;SDS011;3788;49.902;8.590;2023-02-15T01:03:44;17.43;;;11.00;;
7493;SDS011;3788;49.902;8.590;2023-02-15T01:06:12;18.40;;;11.83;;
7493;SDS011;3788;49.902;8.590;2023-02-15T01:08:39;17.00;;;11.80;;
7493;SDS011;3788;49.902;8.590;2023-02-15T01:11:07;17.47;;;11.17;;
7493;SDS011;3788;49.902;8.590;2023-02-15T01:13:36;20.33;;;13.00;;
7493;SDS011;3788;49.902;8.590;2023-02-15T01:16:05;19.83;;;13.43;;
7493;SDS011;3788;49.902;8.590;2023-02-15T01:18:32;18.80;;;12.87;;
7493;SDS011;3788;49.902;8.590;2023-02-15T01:20:59;20.83;;;12.67;;
7493;SDS011;3788;49.902;8.590;2023-02-15T01:23:34;19.27;;;11.73;;
7493;SDS011;3788;49.902;8.590;2023-02-15T01:26:01;17.73;;;12.13;;
7493;SDS011;3788;49.902;8.590;2023-02-15T01:28:28;20.33;;;14.13;;
7493;SDS011;3788;49.902;8.590;2023-02-15T01:30:54;19.53;;;12.80;;
7493;SDS011;3788;49.902;8.590;2023-02-15T01:33:22;19.13;;;11.60;;
7493;SDS011;3788;49.902;8.590;2023-02-15T01:35:49;17.93;;;11.77;;
7493;SDS011;3788;49.902;8.590;2023-02-15T01:38:22;15.83;;;11.00;;
7493;SDS011;3788;49.902;8.590;2023-02-15T01:40:50;18.33;;;10.73;;
7493;SDS011;3788;49.902;8.590;2023-02-15T01:43:17;17.97;;;12.20;;
7493;SDS011;3788;49.902;8.590;2023-02-15T01:45:44;19.07;;;12.43;;
7493;SDS011;3788;49.902;8.590;2023-02-15T01:48:17;20.03;;;12.43;;
7493;SDS011;3788;49.902;8.590;2023-02-15T01:50:49;18.47;;;12.17;;
7493;SDS011;3788;49.902;8.590;2023-02-15T01:53:20;18.97;;;11.90;;
7493;SDS011;3788;49.902;8.590;2023-02-15T01:55:50;16.93;;;11.63;;
7493;SDS011;3788;49.902;8.590;2023-02-15T01:58:20;18.27;;;11.67;;
7493;SDS011;3788;49.902;8.590;2023-02-15T02:00:48;18.30;;;11.43;;
7493;SDS011;3788;49.902;8.590;2023-02-15T02:03:15;18.57;;;11.70;;
7493;SDS011;3788;49.902;8.590;2023-02-15T02:05:42;17.77;;;11.80;;
7493;SDS011;3788;49.902;8.590;2023-02-15T02:08:10;17.27;;;12.17;;
7493;SDS011;3788;49.902;8.590;2023-02-15T02:10:37;16.80;;;10.80;;
7493;SDS011;3788;49.902;8.590;2023-02-15T02:13:05;15.87;;;10.30;;
7493;SDS011;3788;49.902;8.590;2023-02-15T02:15:34;20.03;;;11.10;;
7493;SDS011;3788;49.902;8.590;2023-02-15T02:18:12;15.50;;;11.10;;
7493;SDS011;3788;49.902;8.590;2023-02-15T02:20:59;18.63;;;11.43;;
7493;SDS011;3788;49.902;8.590;2023-02-15T02:23:43;15.77;;;11.17;;
7493;SDS011;3788;49.902;8.590;2023-02-15T02:29:38;16.87;;;10.87;;
7493;SDS011;3788;49.902;8.590;2023-02-15T02:32:25;15.50;;;10.70;;
7493;SDS011;3788;49.902;8.590;2023-02-15T02:35:11;18.93;;;11.60;;
7493;SDS011;3788;49.902;8.590;2023-02-15T02:37:45;19.40;;;12.00;;
7493;SDS011;3788;49.902;8.590;2023-02-15T02:40:18;18.67;;;12.37;;
7493;SDS011;3788;49.902;8.590;2023-02-15T02:42:54;20.50;;;11.93;;
7493;SDS011;3788;49.902;8.590;2023-02-15T02:45:25;17.67;;;11.67;;
7493;SDS011;3788;49.902;8.590;2023-02-15T02:47:55;18.37;;;11.73;;
7493;SDS011;3788;49.902;8.590;2023-02-15T02:50:27;16.70;;;10.97;;
7493;SDS011;3788;49.902;8.590;2023-02-15T02:52:55;16.27;;;11.20;;
7493;SDS011;3788;49.902;8.590;2023-02-15T02:55:24;18.20;;;12.40;;
7493;SDS011;3788;49.902;8.590;2023-02-15T02:57:56;17.27;;;11.40;;
7493;SDS011;3788;49.902;8.590;2023-02-15T03:00:25;18.07;;;11.43;;
7493;SDS011;3788;49.902;8.590;2023-02-15T03:02:59;21.47;;;13.27;;
7493;SDS011;3788;49.902;8.590;2023-02-15T03:05:30;20.03;;;12.57;;
7493;SDS011;3788;49.902;8.590;2023-02-15T03:08:00;18.40;;;11.90;;
7493;SDS011;3788;49.902;8.590;2023-02-15T03:10:31;15.93;;;11.53;;
7493;SDS011;3788;49.902;8.590;2023-02-15T03:13:00;16.00;;;10.80;;
7493;SDS011;3788;49.902;8.590;2023-02-15T03:15:29;16.13;;;10.53;;
7493;SDS011;3788;49.902;8.590;2023-02-15T03:18:13;19.07;;;11.80;;
7493;SDS011;3788;49.902;8.590;2023-02-15T03:20:41;17.67;;;11.70;;
7493;SDS011;3788;49.902;8.590;2023-02-15T03:23:10;17.30;;;10.83;;
7493;SDS011;3788;49.902;8.590;2023-02-15T03:25:40;18.60;;;12.17;;
7493;SDS011;3788;49.902;8.590;2023-02-15T03:28:11;18.17;;;11.70;;
7493;SDS011;3788;49.902;8.590;2023-02-15T03:30:42;19.17;;;11.83;;
7493;SDS011;3788;49.902;8.590;2023-02-15T03:33:13;18.73;;;11.83;;
7493;SDS011;3788;49.902;8.590;2023-02-15T03:35:43;17.87;;;12.00;;
7493;SDS011;3788;49.902;8.590;2023-02-15T03:38:15;19.13;;;11.83;;
7493;SDS011;3788;49.902;8.590;2023-02-15T03:40:45;17.37;;;10.83;;
7493;SDS011;3788;49.902;8.590;2023-02-15T03:43:32;17.10;;;11.13;;
7493;SDS011;3788;49.902;8.590;2023-02-15T03:46:05;16.17;;;11.40;;
7493;SDS011;3788;49.902;8.590;2023-02-15T03:48:39;16.87;;;11.67;;
7493;SDS011;3788;49.902;8.590;2023-02-15T03:51:09;18.73;;;12.77;;
7493;SDS011;3788;49.902;8.590;2023-02-15T03:54:01;18.53;;;12.73;;
7493;SDS011;3788;49.902;8.590;2023-02-15T03:56:31;19.47;;;12.17;;
7493;SDS011;3788;49.902;8.590;2023-02-15T03:59:00;18.67;;;11.97;;
7493;SDS011;3788;49.902;8.590;2023-02-15T04:01:46;20.13;;;12.40;;
7493;SDS011;3788;49.902;8.590;2023-02-15T04:04:26;17.43;;;11.53;;
7493;SDS011;3788;49.902;8.590;2023-02-15T04:06:57;17.70;;;11.27;;
7493;SDS011;3788;49.902;8.590;2023-02-15T04:09:24;18.93;;;11.83;;
7493;SDS011;3788;49.902;8.590;2023-02-15T04:12:08;15.70;;;10.23;;
7493;SDS011;3788;49.902;8.590;2023-02-15T04:14:35;19.70;;;12.93;;
7493;SDS011;3788;49.902;8.590;2023-02-15T04:17:20;18.77;;;11.63;;
7493;SDS011;3788;49.902;8.590;2023-02-15T04:19:48;19.03;;;12.13;;
7493;SDS011;3788;49.902;8.590;2023-02-15T04:22:32;20.13;;;12.10;;
7493;SDS011;3788;49.902;8.590;2023-02-15T04:25:16;17.90;;;11.70;;
7493;SDS011;3788;49.902;8.590;2023-02-15T04:27:44;17.90;;;11.70;;
7493;SDS011;3788;49.902;8.590;2023-02-15T04:30:12;19.03;;;12.90;;
7493;SDS011;3788;49.902;8.590;2023-02-15T04:32:40;16.33;;;10.90;;
7493;SDS011;3788;49.902;8.590;2023-02-15T04:35:08;19.07;;;12.67;;
7493;SDS011;3788;49.902;8.590;2023-02-15T04:37:35;18.10;;;10.77;;
7493;SDS011;3788;49.902;8.590;2023-02-15T04:40:02;17.63;;;11.43;;
7493;SDS011;3788;49.902;8.590;2023-02-15T04:42:28;19.23;;;12.47;;
7493;SDS011;3788;49.902;8.590;2023-02-15T04:44:55;17.97;;;11.80;;
7493;SDS011;3788;49.902;8.590;2023-02-15T04:47:22;18.87;;;12.27;;
7493;SDS011;3788;49.902;8.590;2023-02-15T04:49:49;16.67;;;11.43;;
7493;SDS011;3788;49.902;8.590;2023-02-15T04:52:17;19.10;;;12.93;;
7493;SDS011;3788;49.902;8.590;2023-02-15T04:54:44;15.83;;;11.30;;
7493;SDS011;3788;49.902;8.590;2023-02-15T04:57:11;16.67;;;10.90;;
7493;SDS011;3788;49.902;8.590;2023-02-15T04:59:38;16.10;;;10.63;;
7493;SDS011;3788;49.902;8.590;2023-02-15T05:02:04;18.03;;;11.50;;
7493;SDS011;3788;49.902;8.590;2023-02-15T05:04:31;18.33;;;11.03;;
7493;SDS011;3788;49.902;8.590;2023-02-15T05:06:58;15.13;;;10.77;;
7493;SDS011;3788;49.902;8.590;2023-02-15T05:09:26;17.47;;;11.50;;
7493;SDS011;3788;49.902;8.590;2023-02-15T05:11:52;15.27;;;10.37;;
7493;SDS011;3788;49.902;8.590;2023-02-15T05:14:19;15.53;;;10.13;;
7493;SDS011;3788;49.902;8.590;2023-02-15T05:16:46;15.70;;;9.77;;
7493;SDS011;3788;49.902;8.590;2023-02-15T05:19:13;16.73;;;10.23;;
7493;SDS011;3788;49.902;8.590;2023-02-15T05:21:40;14.90;;;9.60;;
7493;SDS011;3788;49.902;8.590;2023-02-15T05:24:06;15.17;;;10.47;;
7493;SDS011;3788;49.902;8.590;2023-02-15T05:26:48;14.80;;;9.70;;
7493;SDS011;3788;49.902;8.590;2023-02-15T05:29:32;15.30;;;10.70;;
7493;SDS011;3788;49.902;8.590;2023-02-15T05:31:59;16.67;;;11.83;;
7493;SDS011;3788;49.902;8.590;2023-02-15T05:34:27;21.50;;;11.57;;
7493;SDS011;3788;49.902;8.590;2023-02-15T05:36:53;16.07;;;10.63;;
7493;SDS011;3788;49.902;8.590;2023-02-15T05:39:20;16.93;;;10.67;;
7493;SDS011;3788;49.902;8.590;2023-02-15T05:41:48;16.77;;;11.10;;
7493;SDS011;3788;49.902;8.590;2023-02-15T05:44:15;16.53;;;11.07;;
7493;SDS011;3788;49.902;8.590;2023-02-15T05:46:41;16.93;;;10.87;;
7493;SDS011;3788;49.902;8.590;2023-02-15T05:49:08;16.83;;;11.30;;
7493;SDS011;3788;49.902;8.590;2023-02-15T05:51:35;17.07;;;11.87;;
7493;SDS011;3788;49.902;8.590;2023-02-15T05:54:01;15.93;;;11.17;;
7493;SDS011;3788;49.902;8.590;2023-02-15T05:56:28;19.37;;;11.77;;
7493;SDS011;3788;49.902;8.590;2023-02-15T05:58:56;16.57;;;10.73;;
7493;SDS011;3788;49.902;8.590;2023-02-15T06:01:23;17.60;;;10.40;;
7493;SDS011;3788;49.902;8.590;2023-02-15T06:03:49;18.17;;;10.97;;
7493;SDS011;3788;49.902;8.590;2023-02-15T06:06:16;16.10;;;10.70;;
7493;SDS011;3788;49.902;8.590;2023-02-15T06:08:43;16.23;;;10.00;;
7493;SDS011;3788;49.902;8.590;2023-02-15T06:11:10;18.60;;;11.20;;
7493;SDS011;3788;49.902;8.590;2023-02-15T06:13:37;13.77;;;9.83;;
7493;SDS011;3788;49.902;8.590;2023-02-15T06:16:05;16.33;;;10.50;;
7493;SDS011;3788;49.902;8.590;2023-02-15T06:18:32;18.57;;;11.40;;
7493;SDS011;3788;49.902;8.590;2023-02-15T06:20:59;16.87;;;11.00;;
7493;SDS011;3788;49.902;8.590;2023-02-15T06:23:25;16.63;;;10.27;;
7493;SDS011;3788;49.902;8.590;2023-02-15T06:25:52;15.60;;;11.45;;
7493;SDS011;3788;49.902;8.590;2023-02-15T06:28:19;16.93;;;11.50;;
7493;SDS011;3788;49.902;8.590;2023-02-15T06:30:46;14.53;;;9.57;;
7493;SDS011;3788;49.902;8.590;2023-02-15T06:33:14;15.10;;;9.70;;
7493;SDS011;3788;49.902;8.590;2023-02-15T06:35:41;14.83;;;9.90;;
7493;SDS011;3788;49.902;8.590;2023-02-15T06:38:08;13.73;;;9.57;;
7493;SDS011;3788;49.902;8.590;2023-02-15T06:40:34;17.77;;;10.83;;
7493;SDS011;3788;49.902;8.590;2023-02-15T06:43:01;14.37;;;9.37;;
7493;SDS011;3788;49.902;8.590;2023-02-15T06:45:28;15.13;;;9.60;;
7493;SDS011;3788;49.902;8.590;2023-02-15T06:47:55;15.37;;;10.63;;
7493;SDS011;3788;49.902;8.590;2023-02-15T06:50:23;13.43;;;8.50;;
7493;SDS011;3788;49.902;8.590;2023-02-15T06:52:52;14.10;;;8.80;;
7493;SDS011;3788;49.902;8.590;2023-02-15T06:55:21;11.93;;;8.43;;
7493;SDS011;3788;49.902;8.590;2023-02-15T06:57:48;13.80;;;9.20;;
7493;SDS011;3788;49.902;8.590;2023-02-15T07:00:15;14.63;;;9.77;;
7493;SDS011;3788;49.902;8.590;2023-02-15T07:02:42;15.63;;;9.67;;
7493;SDS011;3788;49.902;8.590;2023-02-15T07:05:09;13.53;;;9.07;;
7493;SDS011;3788;49.902;8.590;2023-02-15T07:07:37;15.00;;;9.50;;
7493;SDS011;3788;49.902;8.590;2023-02-15T07:10:04;15.57;;;9.87;;
7493;SDS011;3788;49.902;8.590;2023-02-15T07:12:32;13.03;;;8.83;;
7493;SDS011;3788;49.902;8.590;2023-02-15T07:15:07;14.87;;;10.20;;
7493;SDS011;3788;49.902;8.590;2023-02-15T07:17:35;15.23;;;9.50;;
7493;SDS011;3788;49.902;8.590;2023-02-15T07:20:03;12.30;;;9.13;;
7493;SDS011;3788;49.902;8.590;2023-02-15T07:22:30;14.50;;;9.97;;
7493;SDS011;3788;49.902;8.590;2023-02-15T07:25:00;15.13;;;9.83;;
7493;SDS011;3788;49.902;8.590;2023-02-15T07:27:27;15.53;;;10.60;;
7493;SDS011;3788;49.902;8.590;2023-02-15T07:29:53;14.40;;;9.23;;
7493;SDS011;3788;49.902;8.590;2023-02-15T07:32:20;15.87;;;10.50;;
7493;SDS011;3788;49.902;8.590;2023-02-15T07:34:47;14.97;;;10.00;;
7493;SDS011;3788;49.902;8.590;2023-02-15T07:37:13;14.87;;;10.03;;
7493;SDS011;3788;49.902;8.590;2023-02-15T07:39:40;14.20;;;10.03;;
7493;SDS011;3788;49.902;8.590;2023-02-15T07:42:08;13.60;;;9.20;;
7493;SDS011;3788;49.902;8.590;2023-02-15T07:44:35;15.23;;;10.27;;
7493;SDS011;3788;49.902;8.590;2023-02-15T07:47:02;13.90;;;10.20;;
7493;SDS011;3788;49.902;8.590;2023-02-15T07:49:28;13.30;;;9.63;;
7493;SDS011;3788;49.902;8.590;2023-02-15T07:51:55;13.17;;;9.10;;
7493;SDS011;3788;49.902;8.590;2023-02-15T07:54:21;16.63;;;11.13;;
7493;SDS011;3788;49.902;8.590;2023-02-15T07:56:48;14.07;;;9.73;;
7493;SDS011;3788;49.902;8.590;2023-02-15T07:59:17;15.40;;;10.13;;
7493;SDS011;3788;49.902;8.590;2023-02-15T08:01:43;15.10;;;9.37;;
7493;SDS011;3788;49.902;8.590;2023-02-15T08:04:10;15.00;;;9.67;;
7493;SDS011;3788;49.902;8.590;2023-02-15T08:06:37;16.23;;;9.30;;
7493;SDS011;3788;49.902;8.590;2023-02-15T08:09:04;14.60;;;10.07;;
7493;SDS011;3788;49.902;8.590;2023-02-15T08:11:32;16.20;;;10.10;;
7493;SDS011;3788;49.902;8.590;2023-02-15T08:14:05;15.17;;;9.87;;
7493;SDS011;3788;49.902;8.590;2023-02-15T08:16:35;15.53;;;9.53;;
7493;SDS011;3788;49.902;8.590;2023-02-15T08:19:04;13.10;;;9.07;;
7493;SDS011;3788;49.902;8.590;2023-02-15T08:21:33;13.97;;;9.23;;
7493;SDS011;3788;49.902;8.590;2023-02-15T08:24:00;12.17;;;8.33;;
7493;SDS011;3788;49.902;8.590;2023-02-15T08:26:28;11.57;;;8.10;;
7493;SDS011;3788;49.902;8.590;2023-02-15T08:28:56;13.17;;;8.40;;
7493;SDS011;3788;49.902;8.590;2023-02-15T08:31:22;17.37;;;9.77;;
7493;SDS011;3788;49.902;8.590;2023-02-15T08:33:51;13.67;;;9.83;;
7493;SDS011;3788;49.902;8.590;2023-02-15T08:36:21;18.93;;;11.03;;
7493;SDS011;3788;49.902;8.590;2023-02-15T08:38:49;17.70;;;11.73;;
7493;SDS011;3788;49.902;8.590;2023-02-15T08:41:17;18.00;;;10.93;;
7493;SDS011;3788;49.902;8.590;2023-02-15T08:43:46;18.27;;;11.03;;
7493;SDS011;3788;49.902;8.590;2023-02-15T08:46:14;16.43;;;10.27;;
7493;SDS011;3788;49.902;8.590;2023-02-15T08:48:41;17.43;;;10.87;;
7493;SDS011;3788;49.902;8.590;2023-02-15T08:51:11;21.90;;;12.90;;
7493;SDS011;3788;49.902;8.590;2023-02-15T08:53:39;22.07;;;13.80;;
7493;SDS011;3788;49.902;8.590;2023-02-15T08:56:07;19.80;;;13.00;;
7493;SDS011;3788;49.902;8.590;2023-02-15T08:58:34;22.40;;;12.70;;
7493;SDS011;3788;49.902;8.590;2023-02-15T09:01:08;21.30;;;13.07;;
7493;SDS011;3788;49.902;8.590;2023-02-15T09:03:35;22.70;;;13.90;;
7493;SDS011;3788;49.902;8.590;2023-02-15T09:06:02;18.90;;;12.97;;
7493;SDS011;3788;49.902;8.590;2023-02-15T09:08:30;21.57;;;12.70;;
7493;SDS011;3788;49.902;8.590;2023-02-15T09:11:07;23.87;;;12.67;;
7493;SDS011;3788;49.902;8.590;2023-02-15T09:13:35;21.23;;;12.90;;
7493;SDS011;3788;49.902;8.590;2023-02-15T09:16:02;19.63;;;11.47;;
7493;SDS011;3788;49.902;8.590;2023-02-15T09:18:32;20.60;;;10.90;;
7493;SDS011;3788;49.902;8.590;2023-02-15T09:21:05;22.47;;;12.20;;
7493;SDS011;3788;49.902;8.590;2023-02-15T09:23:35;20.57;;;11.43;;
7493;SDS011;3788;49.902;8.590;2023-02-15T09:26:02;21.80;;;12.27;;
7493;SDS011;3788;49.902;8.590;2023-02-15T09:28:30;20.60;;;12.10;;
7493;SDS011;3788;49.902;8.590;2023-02-15T09:31:03;22.07;;;13.37;;
7493;SDS011;3788;49.902;8.590;2023-02-15T09:33:32;23.10;;;13.63;;
7493;SDS011;3788;49.902;8.590;2023-02-15T09:36:00;23.83;;;13.40;;
7493;SDS011;3788;49.902;8.590;2023-02-15T09:38:27;19.83;;;11.90;;
7493;SDS011;3788;49.902;8.590;2023-02-15T09:40:56;19.97;;;13.67;;
7493;SDS011;3788;49.902;8.590;2023-02-15T09:43:42;22.70;;;13.00;;
7493;SDS011;3788;49.902;8.590;2023-02-15T09:46:19;24.30;;;14.80;;
7493;SDS011;3788;49.902;8.590;2023-02-15T09:48:59;24.03;;;13.60;;
7493;SDS011;3788;49.902;8.590;2023-02-15T09:51:37;22.77;;;13.43;;
7493;SDS011;3788;49.902;8.590;2023-02-15T09:54:15;22.93;;;12.90;;
7493;SDS011;3788;49.902;8.590;2023-02-15T09:56:55;20.03;;;12.80;;
7493;SDS011;3788;49.902;8.590;2023-02-15T09:59:29;21.10;;;12.53;;
7493;SDS011;3788;49.902;8.590;2023-02-15T10:02:03;26.47;;;15.17;;
7493;SDS011;3788;49.902;8.590;2023-02-15T10:04:45;24.40;;;14.53;;
7493;SDS011;3788;49.902;8.590;2023-02-15T10:07:26;26.83;;;15.90;;
7493;SDS011;3788;49.902;8.590;2023-02-15T10:10:08;30.80;;;16.87;;
7493;SDS011;3788;49.902;8.590;2023-02-15T10:12:52;25.90;;;15.93;;
7493;SDS011;3788;49.902;8.590;2023-02-15T10:15:32;26.03;;;15.53;;
7493;SDS011;3788;49.902;8.590;2023-02-15T10:18:20;29.07;;;16.40;;
7493;SDS011;3788;49.902;8.590;2023-02-15T10:20:58;32.00;;;18.00;;
7493;SDS011;3788;49.902;8.590;2023-02-15T10:26:31;33.23;;;17.23;;
7493;SDS011;3788;49.902;8.590;2023-02-15T10:29:07;31.20;;;17.73;;
7493;SDS011;3788;49.902;8.590;2023-02-15T10:31:42;30.97;;;17.43;;
7493;SDS011;3788;49.902;8.590;2023-02-15T10:34:15;30.47;;;18.27;;
7493;SDS011;3788;49.902;8.590;2023-02-15T10:36:52;35.43;;;20.47;;
7493;SDS011;3788;49.902;8.590;2023-02-15T10:39:32;35.40;;;19.83;;
7493;SDS011;3788;49.902;8.590;2023-02-15T10:42:07;32.47;;;18.90;;
7493;SDS011;3788;49.902;8.590;2023-02-15T10:44:45;36.60;;;20.47;;
7493;SDS011;3788;49.902;8.590;2023-02-15T10:47:28;33.77;;;20.00;;
7493;SDS011;3788;49.902;8.590;2023-02-15T10:50:20;33.30;;;19.63;;
7493;SDS011;3788;49.902;8.590;2023-02-15T10:52:59;34.53;;;19.50;;
7493;SDS011;3788;49.902;8.590;2023-02-15T10:55:42;35.10;;;19.83;;
7493;SDS011;3788;49.902;8.590;2023-02-15T10:58:17;34.10;;;19.43;;
7493;SDS011;3788;49.902;8.590;2023-02-15T11:00:52;37.30;;;20.60;;
7493;SDS011;3788;49.902;8.590;2023-02-15T11:03:33;36.17;;;21.07;;
7493;SDS011;3788;49.902;8.590;2023-02-15T11:06:07;40.07;;;22.30;;
7493;SDS011;3788;49.902;8.590;2023-02-15T11:08:38;39.97;;;21.63;;
7493;SDS011;3788;49.902;8.590;2023-02-15T11:11:08;38.97;;;20.93;;
7493;SDS011;3788;49.902;8.590;2023-02-15T11:13:39;39.07;;;20.53;;
7493;SDS011;3788;49.902;8.590;2023-02-15T11:16:12;39.40;;;20.20;;
7493;SDS011;3788;49.902;8.590;2023-02-15T11:18:41;34.47;;;20.40;;
7493;SDS011;3788;49.902;8.590;2023-02-15T11:21:13;41.00;;;21.93;;
7493;SDS011;3788;49.902;8.590;2023-02-15T11:23:44;41.17;;;23.63;;
7493;SDS011;3788;49.902;8.590;2023-02-15T11:26:14;37.50;;;20.53;;
7493;SDS011;3788;49.902;8.590;2023-02-15T11:28:47;46.80;;;22.67;;
7493;SDS011;3788;49.902;8.590;2023-02-15T11:31:21;37.30;;;21.20;;
7493;SDS011;3788;49.902;8.590;2023-02-15T11:33:51;38.67;;;20.53;;
7493;SDS011;3788;49.902;8.590;2023-02-15T11:36:21;38.90;;;20.77;;
7493;SDS011;3788;49.902;8.590;2023-02-15T11:38:52;40.43;;;20.50;;
7493;SDS011;3788;49.902;8.590;2023-02-15T11:41:26;34.50;;;20.10;;
7493;SDS011;3788;49.902;8.590;2023-02-15T11:43:56;35.60;;;20.67;;
7493;SDS011;3788;49.902;8.590;2023-02-15T11:46:30;39.67;;;22.20;;
7493;SDS011;3788;49.902;8.590;2023-02-15T11:48:56;41.90;;;22.17;;
7493;SDS011;3788;49.902;8.590;2023-02-15T11:51:24;43.37;;;21.53;;
7493;SDS011;3788;49.902;8.590;2023-02-15T11:53:53;40.67;;;22.87;;
7493;SDS011;3788;49.902;8.590;2023-02-15T11:56:22;41.10;;;22.23;;
7493;SDS011;3788;49.902;8.590;2023-02-15T11:58:51;42.53;;;22.37;;
7493;SDS011;3788;49.902;8.590;2023-02-15T12:01:23;42.77;;;22.93;;
7493;SDS011;3788;49.902;8.590;2023-02-15T12:03:58;38.33;;;21.97;;
7493;SDS011;3788;49.902;8.590;2023-02-15T12:06:30;43.87;;;23.93;;
7493;SDS011;3788;49.902;8.590;2023-02-15T12:09:01;41.33;;;21.80;;
7493;SDS011;3788;49.902;8.590;2023-02-15T12:11:33;44.40;;;23.47;;
7493;SDS011;3788;49.902;8.590;2023-02-15T12:14:02;40.13;;;22.50;;
7493;SDS011;3788;49.902;8.590;2023-02-15T12:16:32;43.50;;;22.47;;
7493;SDS011;3788;49.902;8.590;2023-02-15T12:19:11;44.17;;;22.30;;
7493;SDS011;3788;49.902;8.590;2023-02-15T12:21:49;39.20;;;22.97;;
7493;SDS011;3788;49.902;8.590;2023-02-15T12:24:18;39.47;;;22.10;;
7493;SDS011;3788;49.902;8.590;2023-02-15T12:26:55;38.50;;;21.03;;
7493;SDS011;3788;49.902;8.590;2023-02-15T12:29:26;38.60;;;20.67;;
7493;SDS011;3788;49.902;8.590;2023-02-15T12:31:56;34.30;;;19.73;;
7493;SDS011;3788;49.902;8.590;2023-02-15T12:34:26;33.60;;;19.77;;
7493;SDS011;3788;49.902;8.590;2023-02-15T12:36:56;31.23;;;18.67;;
7493;SDS011;3788;49.902;8.590;2023-02-15T12:39:27;31.80;;;20.20;;
7493;SDS011;3788;49.902;8.590;2023-02-15T12:42:00;36.50;;;21.37;;
7493;SDS011;3788;49.902;8.590;2023-02-15T12:44:29;37.97;;;20.70;;
7493;SDS011;3788;49.902;8.590;2023-02-15T12:46:58;38.33;;;20.57;;
7493;SDS011;3788;49.902;8.590;2023-02-15T12:49:28;36.60;;;21.57;;
7493;SDS011;3788;49.902;8.590;2023-02-15T12:51:56;39.30;;;20.37;;
7493;SDS011;3788;49.902;8.590;2023-02-15T12:54:29;38.10;;;19.87;;
7493;SDS011;3788;49.902;8.590;2023-02-15T12:56:59;35.13;;;20.20;;
7493;SDS011;3788;49.902;8.590;2023-02-15T12:59:47;33.93;;;18.93;;
7493;SDS011;3788;49.902;8.590;2023-02-15T13:02:16;29.63;;;18.50;;
7493;SDS011;3788;49.902;8.590;2023-02-15T13:04:49;33.07;;;19.33;;
7493;SDS011;3788;49.902;8.590;2023-02-15T13:07:17;33.13;;;18.90;;
7493;SDS011;3788;49.902;8.590;2023-02-15T13:09:44;34.83;;;19.83;;
7493;SDS011;3788;49.902;8.590;2023-02-15T13:12:15;35.30;;;20.73;;
7493;SDS011;3788;49.902;8.590;2023-02-15T13:14:44;35.63;;;21.50;;
7493;SDS011;3788;49.902;8.590;2023-02-15T13:17:15;34.50;;;20.93;;
7493;SDS011;3788;49.902;8.590;2023-02-15T13:19:44;34.97;;;20.17;;
7493;SDS011;3788;49.902;8.590;2023-02-15T13:22:15;31.00;;;18.93;;
7493;SDS011;3788;49.902;8.590;2023-02-15T13:24:46;35.93;;;20.40;;
7493;SDS011;3788;49.902;8.590;2023-02-15T13:27:16;34.40;;;20.10;;
7493;SDS011;3788;49.902;8.590;2023-02-15T13:29:46;32.27;;;19.80;;
7493;SDS011;3788;49.902;8.590;2023-02-15T13:32:20;36.07;;;20.70;;
7493;SDS011;3788;49.902;8.590;2023-02-15T13:34:52;35.87;;;20.73;;
7493;SDS011;3788;49.902;8.590;2023-02-15T13:37:33;31.87;;;20.23;;
7493;SDS011;3788;49.902;8.590;2023-02-15T13:40:10;36.30;;;21.00;;
7493;SDS011;3788;49.902;8.590;2023-02-15T13:42:41;30.37;;;19.03;;
7493;SDS011;3788;49.902;8.590;2023-02-15T13:45:19;34.93;;;19.93;;
7493;SDS011;3788;49.902;8.590;2023-02-15T13:47:56;34.83;;;20.63;;
7493;SDS011;3788;49.902;8.590;2023-02-15T13:50:32;33.33;;;20.60;;
7493;SDS011;3788;49.902;8.590;2023-02-15T13:53:23;33.90;;;20.80;;
7493;SDS011;3788;49.902;8.590;2023-02-15T13:56:13;38.03;;;23.37;;
7493;SDS011;3788;49.902;8.590;2023-02-15T13:58:56;41.60;;;25.63;;
7493;SDS011;3788;49.902;8.590;2023-02-15T14:01:34;38.37;;;23.43;;
7493;SDS011;3788;49.902;8.590;2023-02-15T14:04:09;42.33;;;24.10;;
7493;SDS011;3788;49.902;8.590;2023-02-15T14:07:09;41.87;;;24.77;;
7493;SDS011;3788;49.902;8.590;2023-02-15T14:09:48;38.10;;;23.57;;
7493;SDS011;3788;49.902;8.590;2023-02-15T14:12:27;40.37;;;24.27;;
7493;SDS011;3788;49.902;8.590;2023-02-15T14:15:13;38.07;;;22.67;;
7493;SDS011;3788;49.902;8.590;2023-02-15T14:17:55;39.60;;;23.57;;
7493;SDS011;3788;49.902;8.590;2023-02-15T14:20:32;34.97;;;22.03;;
7493;SDS011;3788;49.902;8.590;2023-02-15T14:23:10;35.37;;;21.17;;
7493;SDS011;3788;49.902;8.590;2023-02-15T14:25:45;32.23;;;20.83;;
7493;SDS011;3788;49.902;8.590;2023-02-15T14:28:16;36.30;;;21.07;;
7493;SDS011;3788;49.902;8.590;2023-02-15T14:30:49;31.77;;;19.30;;
7493;SDS011;3788;49.902;8.590;2023-02-15T14:33:28;28.20;;;18.43;;
7493;SDS011;3788;49.902;8.590;2023-02-15T14:35:58;28.20;;;17.73;;
7493;SDS011;3788;49.902;8.590;2023-02-15T14:38:29;35.30;;;21.23;;
7493;SDS011;3788;49.902;8.590;2023-02-15T14:41:12;33.60;;;21.67;;
7493;SDS011;3788;49.902;8.590;2023-02-15T14:43:45;33.53;;;21.60;;
7493;SDS011;3788;49.902;8.590;2023-02-15T14:46:23;38.23;;;22.97;;
7493;SDS011;3788;49.902;8.590;2023-02-15T14:48:56;32.60;;;21.27;;
7493;SDS011;3788;49.902;8.590;2023-02-15T14:57:27;33.63;;;21.13;;
7493;SDS011;3788;49.902;8.590;2023-02-15T14:59:57;34.60;;;22.23;;
7493;SDS011;3788;49.902;8.590;2023-02-15T15:02:26;35.83;;;21.40;;
7493;SDS011;3788;49.902;8.590;2023-02-15T15:04:58;35.63;;;22.40;;
7493;SDS011;3788;49.902;8.590;2023-02-15T15:07:28;34.63;;;21.27;;
7493;SDS011;3788;49.902;8.590;2023-02-15T15:13:01;32.77;;;20.30;;
7493;SDS011;3788;49.902;8.590;2023-02-15T15:18:51;30.37;;;19.20;;
7493;SDS011;3788;49.902;8.590;2023-02-15T15:24:45;31.10;;;20.10;;
7493;SDS011;3788;49.902;8.590;2023-02-15T15:33:22;28.37;;;19.00;;
7493;SDS011;3788;49.902;8.590;2023-02-15T15:39:41;36.10;;;21.77;;
7493;SDS011;3788;49.902;8.590;2023-02-15T15:42:35;33.77;;;21.67;;
7493;SDS011;3788;49.902;8.590;2023-02-15T15:45:30;33.60;;;21.10;;
7493;SDS011;3788;49.902;8.590;2023-02-15T15:48:30;35.17;;;21.37;;